Terminal Aerodrome Forecast
Issued by NWS

Home | Current Version | Previous Version | Text Only | Print | Product List | Glossary On
Versions: 1 2 3 4 5 6 7 8 9 10 11 12 13 14
000
FTUS45 KABQ 292343
TAFROW
TAF
KROW 292343Z 3000/3024 VRB05KT P6SM VCTS SCT080CB
      TEMPO 3000/3002 VRB25G40KT -TSRA BKN070CB
     FM300200 VRB05KT P6SM VCSH BKN080
     FM300600 15007KT P6SM SCT110
     FM302100 15010KT P6SM SCT080=

USA.gov is the U.S. government's official web portal to all federal, state and local government web resources and services.